AirNav   Get $300 off a Bose A20
 
 933 users online  

10NH Clark Heliport
Hampstead, New Hampshire, USA

GOING TO HAMPSTEAD?


FAA INFORMATION EFFECTIVE 23 MAY 2019

Location

FAA Identifier: 10NH
Lat/Long: 42-52-26.7000N / 071-10-46.8000W
42-52.445000N / 071-10.780000W
42.8740833 / -71.1796667
(estimated)
Elevation: 320 ft. / 98 m (estimated)
Time zone: UTC -4 (UTC -5 during Standard Time)
Zip code: 03841

Heliport Operations

Heliport use: Private use. Permission required prior to landing
Activation date: 03/2004
Control tower: no
ARTCC: BOSTON CENTER
FSS: BANGOR FLIGHT SERVICE STATION
Attendance: UNATNDD
Wind indicator: yes
Segmented circle: no

Heliport Communications

WX ASOS at LWM (10 nm S): 126.75 (978-687-8017)
WX ASOS at MHT (12 nm W): 119.55 (603-621-1766)
WX AWOS-3PT at ASH (16 nm W): 125.1 (603-578-0473)

Nearby radio navigation aids

VOR radial/distance  VOR name  Freq  Var
MHTr103/8.4MANCHESTER VOR/DME114.4015W
LWMr350/8.8LAWRENCE VOR/DME112.5015W
PSMr246/19.8PEASE VOR/DME116.5016W
CONr155/27.0CONCORD VOR/DME112.9015W
BOSr001/32.1BOSTON VOR/DME112.7016W

 
NDB name  Hdg/Dist  Freq  Var  ID
HAGET018/13.840215WLW .-.. .--
SHAKER HILL016/25.125116WSKR ... -.- .-.
ROLLINS233/25.926016WESG . ... --.
FITCHBURG068/32.036515WFIT ..-. .. -

Heliport Services

Runway Information

Helipad H1

Dimensions: 45 x 12 ft. / 14 x 4 m
Surface: turf
Traffic pattern: leftleft

Heliport Ownership and Management from official FAA records

Ownership: Privately-owned
Owner: WILLIAM CLARK
9 EMERSON AVE
HAMPSTEAD, NH 03841
Phone 603-329-5417
Manager: WILLIAM CLARK
9 EMERSON AVE
HAMPSTEAD, NH 03841
Phone 603-329-5417

Heliport Operational Statistics

Aircraft based on the field: 1
Helicopters: 1
    

Additional Remarks

OWNER DESIRES ARPT NOT BE CHARTED.
FOR CD CTC BOSTON APCH AT 603-594-5551.

Instrument Procedures

There are no published instrument procedures at 10NH.

Some nearby airports with instrument procedures:

KLWM - Lawrence Municipal Airport (10 nm S)
KMHT - Manchester Airport (12 nm W)
KASH - Boire Field Airport (16 nm W)
KPSM - Portsmouth International Airport at Pease (20 nm NE)
KBVY - Beverly Regional Airport (21 nm SE)
 
Loc | Ops | Rwys | IFR | FBO | Links
Com | Nav | Svcs | Stats | Notes
Area around 10NH (Clark Heliport)
 
Road maps at: MapQuest Bing Google
 
Aerial photo
No photo
 
Sectional chart

 
Airport distance calculator
Flying to Clark Heliport? Find the distance to fly.

From to 10NH

Sunrise and sunset
Times for 25-May-2019
 Local
(UTC-4)
 Zulu
(UTC)
Morning civil twilight04:4008:40
Sunrise05:1409:14
Sunset20:0900:09
Evening civil twilight20:4300:43

Current date and time
Zulu (UTC)  26-May-2019 00:04:50
Local (UTC-4)  25-May-2019 20:04:50
 
METAR
KLWM 
10nm S 
252354Z VRB05KT 10SM SCT110 18/07 A3004 RMK AO2 SLP172 T01780072 10233 20172 58020
KMHT 
12nm W 
252353Z 15007KT 10SM SCT100 OVC150 19/07 A3000 RMK AO2 SLP172 T01940072 10244 20194 56013
KASH 
16nm SW 
252356Z 15003KT 10SM BKN110 20/09 A3002 RMK AO2 SLP174 T02000089 10244 20200 58016
KPSM 
20nm NE 
252356Z 15014KT 10SM -RA BKN110 OVC160 15/06 A3002 RMK AO2A RAB54 SLP168 P0000 60000 T01540064 10200 20154 57018
TAF
KMHT 
12nm W 
251720Z 2518/2618 VRB04KT P6SM SCT120 BKN250 FM260000 17010KT P6SM -SHRA SCT050 BKN080 FM260300 18010KT P6SM SCT030 BKN050 OVC070 FM260600 19012KT P6SM -SHRA BKN025 OVC040 FM261400 27012KT P6SM SCT035 SCT060
KPSM 
20nm NE 
251912Z 2519/2618 15012KT P6SM SCT120 BKN250 FM260000 14010KT P6SM -SHRA SCT050 BKN080 FM260300 17010KT P6SM SCT030 BKN050 OVC070 FM260600 20012KT P6SM -SHRA BKN025 OVC040 FM261400 27012KT P6SM SCT035 SCT060
NOTAMs
Click for the latest NOTAMs
NOTAMs are issued by the DoD/FAA and will open in a separate window not controlled by AirNav.

 

 
 

Would you like to see your business listed on this page?

 If your business provides an interesting product or service to pilots, flight crews, aircraft, or users of the Clark Heliport, you should consider listing it here.  To start the listing process, click on the button below
 
Add a business
 

Other Pages about Clark Heliport

Update a link
 
Copyright © AirNav, LLC. All rights reserved. Privacy Policy  Contact